Time;durP1;ratioP1;P1;durP2;ratioP2;P2;SDS_P1;SDS_P2;PMS_P1;PMS_P2;Temp;Humidity;BMP_temperature;BMP_pressure;BME280_temperature;BME280_humidity;BME280_pressure;Samples;Min_cycle;Max_cycle;Signal;HPM_P1;HPM_P2
2023/05/04 00:02:15;;;;;;;5.03;3.00;;;;;;;;;;5012861;28;20180;-75
2023/05/04 00:04:44;;;;;;;4.90;2.50;;;;;;;;;;5019504;28;20230;-75
2023/05/04 00:07:10;;;;;;;6.23;4.20;;;;;;;;;;5010534;28;20206;-75
2023/05/04 00:09:36;;;;;;;4.07;3.00;;;;;;;;;;5033618;28;20175;-75
2023/05/04 00:12:02;;;;;;;4.83;2.50;;;;;;;;;;5033160;28;20173;-75
2023/05/04 00:14:29;;;;;;;3.90;2.33;;;;;;;;;;5033383;28;20186;-75
2023/05/04 00:16:55;;;;;;;3.00;2.30;;;;;;;;;;5027196;28;20195;-75
2023/05/04 00:19:21;;;;;;;4.47;2.23;;;;;;;;;;5031894;28;20270;-75
2023/05/04 00:21:47;;;;;;;5.60;2.50;;;;;;;;;;5015781;28;20225;-75
2023/05/04 00:24:13;;;;;;;3.50;2.90;;;;;;;;;;5031946;28;20212;-75
2023/05/04 00:26:39;;;;;;;3.47;2.70;;;;;;;;;;5028593;28;20245;-75
2023/05/04 00:29:05;;;;;;;4.33;2.80;;;;;;;;;;5015710;28;20193;-75
2023/05/04 00:31:32;;;;;;;6.47;4.00;;;;;;;;;;5032178;28;20701;-75
2023/05/04 00:33:58;;;;;;;6.33;4.10;;;;;;;;;;5031350;28;20179;-75
2023/05/04 00:36:24;;;;;;;8.77;4.20;;;;;;;;;;5032589;28;20385;-75
2023/05/04 00:38:51;;;;;;;5.50;3.10;;;;;;;;;;5032269;28;20256;-75
2023/05/04 00:41:17;;;;;;;4.80;3.20;;;;;;;;;;5032556;28;20269;-75
2023/05/04 00:43:44;;;;;;;4.50;3.13;;;;;;;;;;5029660;28;20225;-75
2023/05/04 00:46:10;;;;;;;5.10;2.80;;;;;;;;;;5012910;28;20687;-75
2023/05/04 00:48:37;;;;;;;6.93;3.20;;;;;;;;;;5011754;28;20673;-75
2023/05/04 00:51:04;;;;;;;4.20;2.90;;;;;;;;;;5011414;28;20179;-75
2023/05/04 00:53:30;;;;;;;5.40;2.97;;;;;;;;;;5012284;28;20278;-75
2023/05/04 00:55:56;;;;;;;3.27;2.53;;;;;;;;;;5020316;28;20200;-75
2023/05/04 00:58:23;;;;;;;4.70;2.73;;;;;;;;;;5033028;28;20206;-75
2023/05/04 01:00:50;;;;;;;4.90;3.50;;;;;;;;;;5032377;28;20182;-75
2023/05/04 01:03:17;;;;;;;17.47;11.63;;;;;;;;;;5031883;28;20688;-75
2023/05/04 01:05:48;;;;;;;6.53;4.10;;;;;;;;;;5024419;28;20182;-75
2023/05/04 01:08:17;;;;;;;7.30;2.93;;;;;;;;;;5011419;28;20214;-75
2023/05/04 01:10:53;;;;;;;4.13;2.60;;;;;;;;;;4994898;28;20647;-75
2023/05/04 01:13:21;;;;;;;3.87;2.40;;;;;;;;;;5012077;28;20259;-75
2023/05/04 01:15:48;;;;;;;4.40;2.60;;;;;;;;;;5011460;28;20594;-75
2023/05/04 01:18:15;;;;;;;3.53;2.70;;;;;;;;;;5012232;28;20297;-75
2023/05/04 01:20:41;;;;;;;3.47;2.43;;;;;;;;;;5012393;28;20230;-75
2023/05/04 01:23:08;;;;;;;5.00;3.07;;;;;;;;;;5011944;28;20241;-75
2023/05/04 01:25:45;;;;;;;5.50;2.90;;;;;;;;;;5010757;28;20191;-75
2023/05/04 01:28:19;;;;;;;3.83;3.10;;;;;;;;;;5012307;28;20206;-75
2023/05/04 01:30:48;;;;;;;5.17;3.20;;;;;;;;;;5010811;28;20179;-75
2023/05/04 01:33:15;;;;;;;9.53;3.30;;;;;;;;;;5011644;28;20685;-75
2023/05/04 01:35:41;;;;;;;3.10;2.80;;;;;;;;;;5012016;28;20275;-75
2023/05/04 01:38:07;;;;;;;4.90;3.27;;;;;;;;;;5011991;28;20580;-75
2023/05/04 01:40:34;;;;;;;7.33;3.33;;;;;;;;;;5011852;28;20183;-75
2023/05/04 01:43:00;;;;;;;3.67;2.90;;;;;;;;;;5010394;28;20226;-75
2023/05/04 01:45:26;;;;;;;5.60;3.03;;;;;;;;;;5015947;28;20614;-75
2023/05/04 01:47:52;;;;;;;2.83;2.53;;;;;;;;;;5011706;28;20207;-75
2023/05/04 01:50:18;;;;;;;4.03;2.63;;;;;;;;;;5010652;28;20210;-75
2023/05/04 01:52:45;;;;;;;2.67;2.43;;;;;;;;;;5011299;28;20179;-75
2023/05/04 01:55:11;;;;;;;3.53;2.70;;;;;;;;;;5011872;28;20215;-75
2023/05/04 01:57:37;;;;;;;4.53;2.87;;;;;;;;;;5010212;28;20283;-75
2023/05/04 02:00:04;;;;;;;4.00;2.70;;;;;;;;;;5010620;28;20175;-75
2023/05/04 02:02:41;;;;;;;3.07;2.77;;;;;;;;;;5011280;28;20199;-75
2023/05/04 02:05:08;;;;;;;3.33;2.73;;;;;;;;;;5012444;28;20201;-75
2023/05/04 02:07:34;;;;;;;5.40;2.80;;;;;;;;;;5025271;28;20198;-75
2023/05/04 02:10:00;;;;;;;3.63;2.50;;;;;;;;;;4994017;28;20278;-75
2023/05/04 02:12:27;;;;;;;2.83;2.57;;;;;;;;;;5019601;28;20186;-75
2023/05/04 02:14:53;;;;;;;3.93;2.70;;;;;;;;;;5011543;28;20179;-75
2023/05/04 02:17:19;;;;;;;3.20;2.60;;;;;;;;;;5011407;28;20674;-75
2023/05/04 02:19:45;;;;;;;4.40;3.00;;;;;;;;;;5009981;28;20194;-75
2023/05/04 02:22:13;;;;;;;2.80;2.33;;;;;;;;;;4977983;28;20179;-75
2023/05/04 02:24:40;;;;;;;4.47;2.80;;;;;;;;;;5011474;28;20537;-75
2023/05/04 02:27:06;;;;;;;3.33;2.70;;;;;;;;;;4993514;28;20203;-75
2023/05/04 02:29:32;;;;;;;4.20;2.80;;;;;;;;;;5009090;28;20186;-75
2023/05/04 02:32:00;;;;;;;3.40;2.63;;;;;;;;;;5030165;28;20178;-75
2023/05/04 02:34:26;;;;;;;2.63;2.40;;;;;;;;;;5029465;28;20183;-75
2023/05/04 02:36:53;;;;;;;4.37;2.83;;;;;;;;;;5029749;28;20248;-75
2023/05/04 02:39:20;;;;;;;4.97;2.97;;;;;;;;;;5020257;28;20215;-75
2023/05/04 02:41:46;;;;;;;4.03;2.67;;;;;;;;;;5010759;28;20714;-75
2023/05/04 02:44:12;;;;;;;3.67;3.00;;;;;;;;;;5022793;28;20258;-75
2023/05/04 02:46:38;;;;;;;4.23;2.93;;;;;;;;;;5029654;28;20248;-75
2023/05/04 02:49:05;;;;;;;4.37;3.13;;;;;;;;;;5028487;28;20179;-75
2023/05/04 02:51:31;;;;;;;4.30;2.80;;;;;;;;;;5025218;28;20186;-75
2023/05/04 02:53:57;;;;;;;3.43;2.80;;;;;;;;;;5018984;28;20186;-75
2023/05/04 02:56:23;;;;;;;3.77;3.00;;;;;;;;;;5032867;28;20217;-75
2023/05/04 02:58:49;;;;;;;4.33;2.93;;;;;;;;;;5033765;28;20590;-75
2023/05/04 03:01:15;;;;;;;3.30;2.70;;;;;;;;;;5019509;28;20191;-75
2023/05/04 03:03:41;;;;;;;4.33;3.03;;;;;;;;;;5027358;28;20207;-75
2023/05/04 03:06:08;;;;;;;4.23;3.30;;;;;;;;;;5018547;28;20217;-75
2023/05/04 03:08:34;;;;;;;3.33;2.93;;;;;;;;;;5014821;28;20222;-75
2023/05/04 03:11:01;;;;;;;3.47;3.17;;;;;;;;;;5014848;28;20171;-75
2023/05/04 03:13:27;;;;;;;4.20;3.40;;;;;;;;;;4996830;28;20609;-75
2023/05/04 03:15:53;;;;;;;4.07;3.30;;;;;;;;;;5013489;28;20184;-75
2023/05/04 03:18:19;;;;;;;4.13;3.43;;;;;;;;;;5026679;28;20207;-75
2023/05/04 03:20:48;;;;;;;4.67;3.70;;;;;;;;;;5024735;28;20202;-75
2023/05/04 03:23:18;;;;;;;5.73;3.70;;;;;;;;;;5030620;28;20738;-75
2023/05/04 03:25:44;;;;;;;5.43;3.30;;;;;;;;;;5029954;28;20261;-75
2023/05/04 03:28:10;;;;;;;6.97;4.13;;;;;;;;;;5022529;28;20199;-75
2023/05/04 03:30:37;;;;;;;4.70;3.50;;;;;;;;;;5026788;28;20222;-75
2023/05/04 03:33:03;;;;;;;5.53;3.57;;;;;;;;;;5013037;28;20214;-75
2023/05/04 03:35:29;;;;;;;5.37;3.70;;;;;;;;;;5013050;28;20211;-75
2023/05/04 03:37:56;;;;;;;7.07;4.17;;;;;;;;;;5013331;28;20269;-75
2023/05/04 03:40:23;;;;;;;4.73;3.87;;;;;;;;;;4996845;28;20544;-75
2023/05/04 03:42:51;;;;;;;4.73;3.87;;;;;;;;;;5016692;28;20256;-75
2023/05/04 03:45:18;;;;;;;5.17;3.90;;;;;;;;;;5018856;28;20183;-75
2023/05/04 03:47:44;;;;;;;7.73;3.93;;;;;;;;;;5030490;28;20845;-75
2023/05/04 03:50:12;;;;;;;5.60;4.13;;;;;;;;;;5026414;28;20584;-75
2023/05/04 03:52:38;;;;;;;4.30;3.87;;;;;;;;;;5031749;28;20190;-75
2023/05/04 03:55:04;;;;;;;4.07;3.50;;;;;;;;;;5015935;28;20222;-74
2023/05/04 03:57:30;;;;;;;4.23;3.67;;;;;;;;;;5013651;28;20211;-75
2023/05/04 03:59:57;;;;;;;5.07;3.77;;;;;;;;;;5013303;28;20187;-75
2023/05/04 04:02:23;;;;;;;5.97;4.10;;;;;;;;;;5015234;28;20271;-75
2023/05/04 04:04:50;;;;;;;5.60;4.23;;;;;;;;;;5017789;28;20187;-75
2023/05/04 04:07:17;;;;;;;5.43;4.13;;;;;;;;;;5022744;28;20305;-75
2023/05/04 04:09:43;;;;;;;6.77;3.97;;;;;;;;;;5020282;28;20187;-75
2023/05/04 04:12:10;;;;;;;4.17;3.67;;;;;;;;;;5028574;28;20202;-75
2023/05/04 04:14:36;;;;;;;6.40;4.03;;;;;;;;;;5028288;28;20194;-75
2023/05/04 04:17:02;;;;;;;5.00;3.67;;;;;;;;;;5020858;28;20628;-75
2023/05/04 04:19:28;;;;;;;5.40;4.00;;;;;;;;;;5034469;28;20410;-75
2023/05/04 04:21:54;;;;;;;4.47;4.00;;;;;;;;;;5028385;28;20206;-75
2023/05/04 04:24:20;;;;;;;5.13;3.80;;;;;;;;;;5014735;28;20244;-75
2023/05/04 04:26:47;;;;;;;4.87;3.80;;;;;;;;;;5013556;28;20787;-75
2023/05/04 04:29:13;;;;;;;5.60;4.10;;;;;;;;;;5013215;28;20287;-75
2023/05/04 04:31:39;;;;;;;5.97;3.97;;;;;;;;;;5013072;28;20545;-75
2023/05/04 04:34:05;;;;;;;5.93;3.93;;;;;;;;;;5029352;28;20233;-75
2023/05/04 04:36:32;;;;;;;5.60;3.97;;;;;;;;;;5013015;28;20214;-75
2023/05/04 04:38:58;;;;;;;6.27;4.33;;;;;;;;;;5023576;28;20201;-75
2023/05/04 04:41:24;;;;;;;5.07;4.10;;;;;;;;;;5020376;28;20187;-74
2023/05/04 04:43:50;;;;;;;4.80;4.17;;;;;;;;;;5014128;28;20246;-75
2023/05/04 04:46:17;;;;;;;4.77;4.00;;;;;;;;;;5011247;28;20183;-75
2023/05/04 04:48:43;;;;;;;6.23;4.67;;;;;;;;;;5011910;28;20179;-75
2023/05/04 04:51:10;;;;;;;5.33;4.33;;;;;;;;;;5025088;28;20716;-75
2023/05/04 04:53:36;;;;;;;5.97;3.87;;;;;;;;;;5025515;28;20337;-75
2023/05/04 04:56:02;;;;;;;7.17;4.23;;;;;;;;;;5011870;28;20563;-75
2023/05/04 04:58:28;;;;;;;5.10;4.00;;;;;;;;;;5007449;28;20195;-75
2023/05/04 05:00:54;;;;;;;5.67;4.27;;;;;;;;;;5030215;28;20639;-75
2023/05/04 05:03:21;;;;;;;5.40;4.17;;;;;;;;;;5031100;28;20726;-75
2023/05/04 05:05:47;;;;;;;5.33;3.73;;;;;;;;;;5032675;28;20171;-75
2023/05/04 05:08:13;;;;;;;4.10;3.70;;;;;;;;;;5031062;28;20220;-75
2023/05/04 05:10:39;;;;;;;5.03;4.03;;;;;;;;;;5032307;28;20198;-75
2023/05/04 05:13:05;;;;;;;4.77;4.27;;;;;;;;;;5032092;28;20265;-75
2023/05/04 05:15:31;;;;;;;5.23;3.90;;;;;;;;;;5032301;28;20175;-75
2023/05/04 05:17:58;;;;;;;6.47;3.70;;;;;;;;;;5032194;28;20209;-75
2023/05/04 05:20:24;;;;;;;5.87;3.83;;;;;;;;;;5032228;28;20175;-75
2023/05/04 05:22:50;;;;;;;5.40;3.93;;;;;;;;;;5031898;28;20321;-75
2023/05/04 05:25:17;;;;;;;5.17;4.23;;;;;;;;;;5030721;28;20743;-75
2023/05/04 05:27:44;;;;;;;6.40;4.00;;;;;;;;;;5029270;28;20198;-75
2023/05/04 05:30:10;;;;;;;5.07;3.80;;;;;;;;;;5028325;28;20186;-75
2023/05/04 05:32:37;;;;;;;6.43;4.10;;;;;;;;;;5026258;28;20730;-75
2023/05/04 05:35:04;;;;;;;6.03;3.60;;;;;;;;;;5026299;28;20230;-75
2023/05/04 05:37:31;;;;;;;3.70;3.40;;;;;;;;;;5012747;28;20765;-75
2023/05/04 05:39:57;;;;;;;4.33;3.50;;;;;;;;;;5014479;28;20194;-75
2023/05/04 05:42:23;;;;;;;7.60;4.07;;;;;;;;;;5020213;28;20191;-75
2023/05/04 05:44:49;;;;;;;6.83;3.60;;;;;;;;;;5013325;28;20175;-81
2023/05/04 05:47:16;;;;;;;6.53;3.60;;;;;;;;;;5023802;28;20216;-75
2023/05/04 05:49:42;;;;;;;4.37;3.37;;;;;;;;;;5035608;28;20182;-81
2023/05/04 05:52:08;;;;;;;5.27;3.90;;;;;;;;;;5037156;28;20166;-76
2023/05/04 05:54:34;;;;;;;5.87;3.93;;;;;;;;;;5036478;28;20246;-77
2023/05/04 05:57:01;;;;;;;5.10;3.60;;;;;;;;;;5020552;28;20207;-76
2023/05/04 05:59:27;;;;;;;5.20;4.00;;;;;;;;;;5016132;28;20199;-76
2023/05/04 06:01:53;;;;;;;5.90;3.73;;;;;;;;;;5014960;28;20182;-76
2023/05/04 06:04:19;;;;;;;5.90;4.13;;;;;;;;;;5014247;28;20330;-76
2023/05/04 06:06:46;;;;;;;5.40;3.97;;;;;;;;;;5013845;28;20579;-76
2023/05/04 06:09:12;;;;;;;4.77;4.27;;;;;;;;;;5030075;28;20186;-76
2023/05/04 06:11:38;;;;;;;6.03;3.83;;;;;;;;;;5031062;28;20167;-76
2023/05/04 06:14:04;;;;;;;7.43;4.93;;;;;;;;;;5029457;28;20211;-76
2023/05/04 06:16:30;;;;;;;7.20;4.23;;;;;;;;;;5011860;28;20211;-76
2023/05/04 06:18:57;;;;;;;5.00;3.93;;;;;;;;;;5031246;28;20182;-76
2023/05/04 06:21:23;;;;;;;12.20;9.77;;;;;;;;;;5029732;28;20237;-76
2023/05/04 06:23:49;;;;;;;6.47;5.03;;;;;;;;;;5031990;28;20233;-76
2023/05/04 06:26:16;;;;;;;5.77;4.00;;;;;;;;;;5032567;28;20228;-76
2023/05/04 06:28:42;;;;;;;4.77;3.87;;;;;;;;;;5031492;28;20265;-76
2023/05/04 06:31:08;;;;;;;4.00;3.60;;;;;;;;;;5021922;28;20179;-76
2023/05/04 06:33:34;;;;;;;5.97;4.20;;;;;;;;;;5028522;28;20179;-76
2023/05/04 06:36:00;;;;;;;6.03;4.10;;;;;;;;;;5021472;28;20178;-75
2023/05/04 06:38:27;;;;;;;5.07;4.17;;;;;;;;;;5030573;28;20206;-75
2023/05/04 06:40:53;;;;;;;8.27;4.63;;;;;;;;;;5027584;28;20338;-75
2023/05/04 06:43:19;;;;;;;8.20;4.20;;;;;;;;;;5029002;28;20204;-74
2023/05/04 06:45:45;;;;;;;4.60;4.03;;;;;;;;;;5029682;28;20174;-74
2023/05/04 06:48:11;;;;;;;6.53;4.90;;;;;;;;;;5026228;28;20245;-74
2023/05/04 06:50:38;;;;;;;6.67;5.13;;;;;;;;;;5032809;28;20680;-74
2023/05/04 06:53:09;;;;;;;5.90;4.90;;;;;;;;;;5012811;28;20211;-74
2023/05/04 06:55:36;;;;;;;6.13;4.40;;;;;;;;;;5022673;28;20768;-74
2023/05/04 06:58:02;;;;;;;5.90;4.10;;;;;;;;;;5032358;28;20199;-74
2023/05/04 07:00:28;;;;;;;7.23;4.83;;;;;;;;;;5032533;28;20261;-74
2023/05/04 07:02:55;;;;;;;8.20;5.53;;;;;;;;;;5031653;28;20237;-74
2023/05/04 07:05:21;;;;;;;7.23;4.50;;;;;;;;;;5030159;28;20265;-74
2023/05/04 07:07:48;;;;;;;7.00;4.80;;;;;;;;;;5025681;28;20665;-74
2023/05/04 07:10:15;;;;;;;6.10;5.00;;;;;;;;;;5030085;28;20733;-74
2023/05/04 07:12:42;;;;;;;6.70;4.90;;;;;;;;;;5028726;28;20537;-74
2023/05/04 07:15:09;;;;;;;6.83;5.73;;;;;;;;;;5028956;28;20625;-74
2023/05/04 07:17:38;;;;;;;6.10;4.87;;;;;;;;;;5023287;28;20301;-74
2023/05/04 07:20:05;;;;;;;6.67;5.10;;;;;;;;;;5024563;28;20194;-74
2023/05/04 07:22:31;;;;;;;6.60;4.87;;;;;;;;;;5030097;28;20197;-75
2023/05/04 07:24:58;;;;;;;8.23;4.60;;;;;;;;;;5023137;28;20174;-75
2023/05/04 07:27:24;;;;;;;6.57;5.20;;;;;;;;;;5029309;28;20289;-74
2023/05/04 07:29:50;;;;;;;7.30;5.40;;;;;;;;;;5024033;28;20786;-74
2023/05/04 07:32:16;;;;;;;6.73;5.50;;;;;;;;;;5011966;28;20315;-74
2023/05/04 07:34:46;;;;;;;6.77;5.83;;;;;;;;;;5027913;28;20836;-75
2023/05/04 07:37:12;;;;;;;7.37;5.60;;;;;;;;;;5023518;28;20277;-74
2023/05/04 07:39:39;;;;;;;5.30;4.67;;;;;;;;;;5014761;28;20179;-74
2023/05/04 07:42:05;;;;;;;7.17;5.23;;;;;;;;;;5035197;28;20574;-74
2023/05/04 07:44:32;;;;;;;6.23;5.63;;;;;;;;;;5028745;28;20655;-74
2023/05/04 07:46:58;;;;;;;5.83;5.23;;;;;;;;;;5034899;28;20677;-75
2023/05/04 07:49:25;;;;;;;7.03;6.23;;;;;;;;;;5035002;28;20262;-75
2023/05/04 07:51:51;;;;;;;6.47;5.43;;;;;;;;;;5015359;28;20266;-75
2023/05/04 07:54:18;;;;;;;9.63;5.20;;;;;;;;;;5033219;28;20616;-74
2023/05/04 07:56:44;;;;;;;6.87;5.60;;;;;;;;;;5034442;28;20207;-75
2023/05/04 07:59:10;;;;;;;6.73;5.53;;;;;;;;;;5033348;28;20166;-75
2023/05/04 08:01:37;;;;;;;6.43;5.00;;;;;;;;;;5027576;28;20202;-75
2023/05/04 08:04:03;;;;;;;6.40;5.73;;;;;;;;;;5023700;28;20207;-75
2023/05/04 08:06:29;;;;;;;7.47;5.70;;;;;;;;;;5032013;28;20222;-75
2023/05/04 08:08:55;;;;;;;6.03;5.43;;;;;;;;;;5026083;28;20187;-75
2023/05/04 08:11:21;;;;;;;7.23;6.30;;;;;;;;;;5020981;28;20186;-75
2023/05/04 08:13:48;;;;;;;7.17;5.50;;;;;;;;;;5034632;28;20186;-75
2023/05/04 08:16:14;;;;;;;6.63;5.87;;;;;;;;;;5030021;28;20187;-75
2023/05/04 08:18:40;;;;;;;5.63;5.13;;;;;;;;;;5018779;28;20190;-74
2023/05/04 08:21:07;;;;;;;6.20;5.60;;;;;;;;;;5032851;28;20554;-75
2023/05/04 08:23:33;;;;;;;7.20;5.83;;;;;;;;;;5034692;28;20187;-75
2023/05/04 08:26:02;;;;;;;5.53;5.03;;;;;;;;;;5033936;28;20560;-75
2023/05/04 08:28:29;;;;;;;6.93;5.40;;;;;;;;;;5034713;28;20198;-74
2023/05/04 08:30:56;;;;;;;6.53;5.23;;;;;;;;;;5032502;28;20205;-75
2023/05/04 08:33:22;;;;;;;7.70;5.33;;;;;;;;;;5021197;28;20202;-75
2023/05/04 08:35:48;;;;;;;6.17;5.10;;;;;;;;;;5020504;28;20187;-74
2023/05/04 08:38:15;;;;;;;4.87;4.33;;;;;;;;;;5021599;28;20749;-75
2023/05/04 08:40:42;;;;;;;8.00;4.70;;;;;;;;;;5032215;28;20191;-75
2023/05/04 08:43:08;;;;;;;6.37;4.67;;;;;;;;;;5033364;28;20700;-76
2023/05/04 08:45:38;;;;;;;5.67;4.33;;;;;;;;;;5021490;28;20210;-77
2023/05/04 08:48:06;;;;;;;5.03;4.53;;;;;;;;;;5026879;28;20306;-77
2023/05/04 08:50:33;;;;;;;5.47;4.30;;;;;;;;;;5032577;28;20182;-77
2023/05/04 08:53:01;;;;;;;6.03;4.23;;;;;;;;;;5019948;28;20249;-76
2023/05/04 08:55:28;;;;;;;5.27;4.10;;;;;;;;;;5025866;28;20198;-76
2023/05/04 08:57:54;;;;;;;4.40;4.00;;;;;;;;;;5022040;28;20203;-76
2023/05/04 09:00:21;;;;;;;5.63;4.00;;;;;;;;;;5013122;28;20193;-76
2023/05/04 09:02:48;;;;;;;5.63;4.27;;;;;;;;;;5019813;28;20214;-76
2023/05/04 09:05:15;;;;;;;6.73;4.37;;;;;;;;;;5017519;28;20207;-76
2023/05/04 09:07:41;;;;;;;3.90;3.60;;;;;;;;;;5029143;28;20211;-76
2023/05/04 09:10:08;;;;;;;5.97;4.23;;;;;;;;;;5032679;28;20197;-76
2023/05/04 09:12:36;;;;;;;6.23;4.00;;;;;;;;;;5032486;28;20186;-76
2023/05/04 09:15:12;;;;;;;4.20;3.80;;;;;;;;;;5032579;28;20201;-76
2023/05/04 09:17:39;;;;;;;5.27;3.87;;;;;;;;;;5026773;28;20206;-76
2023/05/04 09:20:05;;;;;;;6.27;3.97;;;;;;;;;;5032707;28;20240;-76
2023/05/04 09:22:32;;;;;;;4.43;3.73;;;;;;;;;;5020647;28;20277;-76
2023/05/04 09:25:24;;;;;;;3.60;3.30;;;;;;;;;;5032817;28;20201;-76
2023/05/04 09:27:53;;;;;;;3.90;3.37;;;;;;;;;;5016136;28;20714;-76
2023/05/04 09:30:20;;;;;;;11.70;3.97;;;;;;;;;;5033013;28;20642;-76
2023/05/04 09:32:48;;;;;;;4.03;3.63;;;;;;;;;;5032301;28;20189;-76
2023/05/04 09:35:15;;;;;;;3.87;3.40;;;;;;;;;;5031206;28;20194;-76
2023/05/04 09:37:47;;;;;;;4.00;3.43;;;;;;;;;;5029542;28;20236;-76
2023/05/04 09:40:14;;;;;;;4.10;3.20;;;;;;;;;;5032094;28;20270;-76
2023/05/04 09:42:40;;;;;;;7.10;3.50;;;;;;;;;;5023326;28;20191;-76
2023/05/04 09:45:08;;;;;;;4.53;3.80;;;;;;;;;;5030779;28;20171;-77
2023/05/04 09:47:38;;;;;;;4.27;3.20;;;;;;;;;;5030343;28;20206;-76
2023/05/04 09:50:11;;;;;;;3.90;3.10;;;;;;;;;;5023672;28;20726;-76
2023/05/04 09:52:38;;;;;;;3.60;3.30;;;;;;;;;;5007692;28;20182;-76
2023/05/04 09:55:05;;;;;;;3.10;2.80;;;;;;;;;;5012667;28;20206;-76
2023/05/04 09:57:31;;;;;;;4.37;3.23;;;;;;;;;;5022020;28;20650;-76
2023/05/04 09:59:57;;;;;;;5.47;3.20;;;;;;;;;;5021133;28;20179;-76
2023/05/04 10:02:27;;;;;;;3.20;2.87;;;;;;;;;;5015412;28;20190;-76
2023/05/04 10:04:53;;;;;;;3.00;2.80;;;;;;;;;;5023636;28;20657;-76
2023/05/04 10:07:20;;;;;;;8.50;3.57;;;;;;;;;;5029220;28;20206;-76
2023/05/04 10:09:46;;;;;;;5.80;3.00;;;;;;;;;;5031950;28;20183;-76
2023/05/04 10:12:13;;;;;;;4.17;3.07;;;;;;;;;;5013287;28;20207;-76
2023/05/04 10:14:39;;;;;;;3.37;2.87;;;;;;;;;;5014209;28;20494;-76
2023/05/04 10:17:11;;;;;;;3.63;2.93;;;;;;;;;;5023316;28;20202;-76
2023/05/04 10:19:38;;;;;;;3.10;2.80;;;;;;;;;;5024125;28;20195;-76
2023/05/04 10:22:23;;;;;;;3.03;2.80;;;;;;;;;;5025991;28;20182;-76
2023/05/04 10:25:05;;;;;;;3.60;2.60;;;;;;;;;;5031764;28;20205;-76
2023/05/04 10:27:56;;;;;;;3.40;3.10;;;;;;;;;;5027108;28;20631;-76
2023/05/04 10:30:22;;;;;;;3.10;2.90;;;;;;;;;;5032592;28;20209;-76
2023/05/04 10:32:56;;;;;;;5.50;2.93;;;;;;;;;;5025637;28;20179;-76
2023/05/04 10:35:22;;;;;;;3.20;2.77;;;;;;;;;;5025273;28;20251;-76
2023/05/04 10:37:53;;;;;;;3.20;2.90;;;;;;;;;;5021237;28;20230;-77
2023/05/04 10:40:33;;;;;;;3.30;2.90;;;;;;;;;;5022330;28;20836;-76
2023/05/04 10:42:59;;;;;;;3.10;2.80;;;;;;;;;;5019219;28;20217;-77
2023/05/04 10:45:38;;;;;;;2.90;2.70;;;;;;;;;;5031991;28;20178;-77
2023/05/04 10:48:04;;;;;;;2.80;2.60;;;;;;;;;;5026194;28;20194;-77
2023/05/04 10:50:43;;;;;;;3.50;2.77;;;;;;;;;;5029896;28;20202;-77
2023/05/04 10:53:09;;;;;;;3.43;2.70;;;;;;;;;;5012265;28;20183;-78
2023/05/04 10:55:40;;;;;;;2.97;2.67;;;;;;;;;;5018009;28;20199;-77
2023/05/04 10:58:06;;;;;;;3.20;2.70;;;;;;;;;;5023891;28;20214;-75
2023/05/04 11:00:40;;;;;;;3.77;2.70;;;;;;;;;;5029733;28;20248;-75
2023/05/04 11:03:06;;;;;;;3.10;2.77;;;;;;;;;;5030208;28;20210;-76
2023/05/04 11:05:42;;;;;;;3.40;3.10;;;;;;;;;;5014462;28;20258;-76
2023/05/04 11:08:15;;;;;;;2.90;2.60;;;;;;;;;;5022156;28;20205;-76
2023/05/04 11:10:41;;;;;;;3.17;2.67;;;;;;;;;;5029115;28;20189;-77
2023/05/04 11:13:11;;;;;;;3.00;2.60;;;;;;;;;;5030378;28;20656;-77
2023/05/04 11:15:47;;;;;;;2.70;2.50;;;;;;;;;;5022356;28;20204;-76
2023/05/04 11:18:13;;;;;;;3.63;3.00;;;;;;;;;;5015636;28;20558;-76
2023/05/04 11:20:40;;;;;;;4.53;3.10;;;;;;;;;;5024902;28;20572;-76
2023/05/04 11:23:09;;;;;;;5.30;3.10;;;;;;;;;;5027244;28;20262;-76
2023/05/04 11:25:36;;;;;;;3.73;3.10;;;;;;;;;;5028903;28;20179;-77
2023/05/04 11:28:03;;;;;;;3.50;3.20;;;;;;;;;;5033489;28;20256;-77
2023/05/04 11:30:33;;;;;;;3.80;2.70;;;;;;;;;;5020330;28;20232;-76
2023/05/04 11:33:00;;;;;;;3.40;3.10;;;;;;;;;;5014727;28;20574;-79
2023/05/04 11:35:26;;;;;;;5.47;2.90;;;;;;;;;;5021692;28;20270;-76
2023/05/04 11:37:54;;;;;;;4.23;3.13;;;;;;;;;;5026429;28;20237;-76
2023/05/04 11:40:24;;;;;;;4.37;2.90;;;;;;;;;;5028672;28;20191;-76
2023/05/04 11:42:51;;;;;;;3.30;3.00;;;;;;;;;;5013904;28;20759;-75
2023/05/04 11:45:29;;;;;;;4.17;3.20;;;;;;;;;;5013915;28;20210;-75
2023/05/04 11:47:55;;;;;;;4.47;2.80;;;;;;;;;;5021103;28;20206;-76
2023/05/04 11:50:21;;;;;;;4.60;3.00;;;;;;;;;;5029597;28;20617;-76
2023/05/04 11:52:48;;;;;;;4.40;2.90;;;;;;;;;;5026568;28;20183;-75
2023/05/04 11:55:26;;;;;;;3.30;2.80;;;;;;;;;;5023964;28;20596;-76
2023/05/04 11:57:56;;;;;;;3.57;2.80;;;;;;;;;;5025390;28;20198;-75
2023/05/04 12:00:33;;;;;;;3.27;2.97;;;;;;;;;;5025079;28;20215;-76
2023/05/04 12:02:59;;;;;;;4.40;3.00;;;;;;;;;;5024371;28;20263;-76
2023/05/04 12:05:27;;;;;;;4.43;3.23;;;;;;;;;;5025171;28;20285;-76
2023/05/04 12:07:53;;;;;;;2.60;2.40;;;;;;;;;;5025003;28;20203;-76
2023/05/04 12:10:26;;;;;;;3.57;3.23;;;;;;;;;;5031109;28;20184;-76
2023/05/04 12:12:53;;;;;;;3.13;2.83;;;;;;;;;;5022555;28;20238;-76
2023/05/04 12:15:32;;;;;;;2.80;2.60;;;;;;;;;;5019285;28;20216;-76
2023/05/04 12:17:58;;;;;;;3.13;2.70;;;;;;;;;;5018174;28;20216;-76
2023/05/04 12:20:27;;;;;;;3.23;2.80;;;;;;;;;;5033045;28;20204;-76
2023/05/04 12:22:54;;;;;;;3.00;2.70;;;;;;;;;;5027772;28;20201;-77
2023/05/04 12:25:20;;;;;;;2.80;2.60;;;;;;;;;;5017381;28;20179;-76
2023/05/04 12:27:46;;;;;;;4.20;3.00;;;;;;;;;;5028810;28;20206;-77
2023/05/04 12:30:13;;;;;;;2.60;2.40;;;;;;;;;;5024694;28;20232;-76
2023/05/04 12:32:39;;;;;;;3.07;2.73;;;;;;;;;;5018370;28;20183;-76
2023/05/04 12:35:06;;;;;;;3.23;2.50;;;;;;;;;;5029338;28;20177;-76
2023/05/04 12:37:32;;;;;;;3.00;2.80;;;;;;;;;;5029098;28;20213;-76
2023/05/04 12:39:58;;;;;;;3.50;2.70;;;;;;;;;;5028437;28;20237;-76
2023/05/04 12:42:24;;;;;;;3.23;2.90;;;;;;;;;;5028307;28;20182;-76
2023/05/04 12:44:51;;;;;;;3.87;3.07;;;;;;;;;;5030141;28;20201;-76
2023/05/04 12:47:19;;;;;;;2.90;2.70;;;;;;;;;;5030190;28;20271;-76
2023/05/04 12:49:45;;;;;;;3.63;2.77;;;;;;;;;;5025374;28;20180;-76
2023/05/04 12:52:11;;;;;;;2.90;2.57;;;;;;;;;;5030080;28;20694;-77
2023/05/04 12:54:37;;;;;;;4.60;3.10;;;;;;;;;;5029316;28;20198;-77
2023/05/04 12:57:04;;;;;;;2.73;2.47;;;;;;;;;;5030166;28;20747;-78
2023/05/04 12:59:30;;;;;;;4.03;3.50;;;;;;;;;;5029337;28;20175;-78
2023/05/04 13:01:57;;;;;;;3.40;3.10;;;;;;;;;;5022352;28;20214;-77
2023/05/04 13:04:23;;;;;;;3.30;2.77;;;;;;;;;;5026035;28;20206;-77
2023/05/04 13:06:49;;;;;;;2.93;2.73;;;;;;;;;;5026096;28;20584;-77
2023/05/04 13:09:15;;;;;;;5.73;3.00;;;;;;;;;;5025471;28;20183;-77
2023/05/04 13:11:41;;;;;;;3.63;2.80;;;;;;;;;;5025844;28;20196;-77
2023/05/04 13:14:07;;;;;;;4.37;2.80;;;;;;;;;;5025838;28;21116;-77
2023/05/04 13:16:34;;;;;;;3.00;2.70;;;;;;;;;;5024694;28;20391;-79
2023/05/04 13:19:00;;;;;;;5.93;2.90;;;;;;;;;;5023809;28;20225;-77
2023/05/04 13:21:26;;;;;;;2.90;2.70;;;;;;;;;;5029402;28;20196;-77
2023/05/04 13:23:52;;;;;;;3.60;2.63;;;;;;;;;;5013958;28;20222;-77
2023/05/04 13:26:18;;;;;;;4.10;2.97;;;;;;;;;;5025312;28;20180;-77
2023/05/04 13:28:45;;;;;;;3.20;2.90;;;;;;;;;;5034109;28;20179;-76
2023/05/04 13:31:11;;;;;;;5.20;3.07;;;;;;;;;;5029022;28;20192;-77
2023/05/04 13:33:37;;;;;;;3.67;3.03;;;;;;;;;;5027773;28;20246;-77
2023/05/04 13:36:04;;;;;;;3.20;2.90;;;;;;;;;;5026315;28;20680;-78
2023/05/04 13:38:31;;;;;;;2.90;2.60;;;;;;;;;;5027761;28;20240;-76
2023/05/04 13:40:57;;;;;;;3.17;2.37;;;;;;;;;;5028980;28;20195;-77
2023/05/04 13:43:23;;;;;;;2.87;2.57;;;;;;;;;;5029494;28;20250;-78
2023/05/04 13:45:50;;;;;;;4.63;2.90;;;;;;;;;;5031015;28;20183;-77
2023/05/04 13:48:16;;;;;;;2.90;2.70;;;;;;;;;;5025763;28;20210;-77
2023/05/04 13:50:43;;;;;;;2.87;2.63;;;;;;;;;;5031018;28;20177;-77
2023/05/04 13:53:10;;;;;;;3.37;2.80;;;;;;;;;;5011985;28;20199;-77
2023/05/04 13:55:36;;;;;;;5.90;2.60;;;;;;;;;;5012587;28;20689;-77
2023/05/04 13:58:02;;;;;;;3.00;2.80;;;;;;;;;;5031275;28;20200;-78
2023/05/04 14:00:29;;;;;;;3.90;2.87;;;;;;;;;;5031330;28;20275;-77
2023/05/04 14:02:55;;;;;;;3.30;2.50;;;;;;;;;;5031084;28;20270;-77
2023/05/04 14:05:21;;;;;;;3.07;2.83;;;;;;;;;;5030851;28;20234;-77
2023/05/04 14:07:48;;;;;;;3.10;2.63;;;;;;;;;;5023885;28;20320;-77
2023/05/04 14:10:14;;;;;;;5.07;2.80;;;;;;;;;;5031085;28;20189;-77
2023/05/04 14:12:40;;;;;;;2.70;2.47;;;;;;;;;;5031166;28;20185;-77
2023/05/04 14:15:06;;;;;;;2.77;2.57;;;;;;;;;;5031384;28;20220;-78
2023/05/04 14:17:33;;;;;;;4.33;2.80;;;;;;;;;;5024034;28;20210;-77
2023/05/04 14:19:59;;;;;;;4.83;3.07;;;;;;;;;;5020367;28;20192;-77
2023/05/04 14:22:25;;;;;;;3.73;2.80;;;;;;;;;;5011452;28;20232;-77
2023/05/04 14:24:51;;;;;;;2.60;2.40;;;;;;;;;;5030124;28;20225;-77
2023/05/04 14:27:19;;;;;;;2.60;2.40;;;;;;;;;;5028672;28;20215;-77
2023/05/04 14:29:46;;;;;;;2.53;2.23;;;;;;;;;;5029709;28;20244;-77
2023/05/04 14:32:12;;;;;;;2.47;2.27;;;;;;;;;;5014189;28;20281;-77
2023/05/04 14:34:38;;;;;;;3.17;2.20;;;;;;;;;;5029287;28;20192;-77
2023/05/04 14:37:04;;;;;;;3.47;2.33;;;;;;;;;;5019500;28;20543;-77
2023/05/04 14:39:30;;;;;;;3.43;2.27;;;;;;;;;;5025849;28;20199;-77
2023/05/04 14:41:56;;;;;;;2.57;2.37;;;;;;;;;;5029835;28;20560;-77
2023/05/04 14:44:24;;;;;;;3.50;2.00;;;;;;;;;;5010875;28;20231;-77